sensor_id;sensor_type;location;lat;lon;timestamp;pressure;altitude;pressure_sealevel;temperature;humidity
10806;BME280;5455;53.224;6.000;2024-01-10T00:00:39;103503.38;;;-3.42;100.00
10806;BME280;5455;53.224;6.000;2024-01-10T00:03:06;103505.91;;;-3.41;100.00
10806;BME280;5455;53.224;6.000;2024-01-10T00:05:34;103505.91;;;-3.41;100.00
10806;BME280;5455;53.224;6.000;2024-01-10T00:08:01;103509.84;;;-3.43;100.00
10806;BME280;5455;53.224;6.000;2024-01-10T00:10:28;103502.56;;;-3.43;100.00
10806;BME280;5455;53.224;6.000;2024-01-10T00:12:55;103502.16;;;-3.46;100.00
10806;BME280;5455;53.224;6.000;2024-01-10T00:15:22;103499.22;;;-3.45;100.00
10806;BME280;5455;53.224;6.000;2024-01-10T00:17:49;103491.53;;;-3.48;100.00
10806;BME280;5455;53.224;6.000;2024-01-10T00:20:16;103494.25;;;-3.48;100.00
10806;BME280;5455;53.224;6.000;2024-01-10T00:22:43;103497.16;;;-3.49;100.00
10806;BME280;5455;53.224;6.000;2024-01-10T00:25:11;103485.94;;;-3.53;100.00
10806;BME280;5455;53.224;6.000;2024-01-10T00:27:37;103489.66;;;-3.54;100.00
10806;BME280;5455;53.224;6.000;2024-01-10T00:30:05;103479.06;;;-3.55;100.00
10806;BME280;5455;53.224;6.000;2024-01-10T00:32:33;103475.72;;;-3.57;100.00
10806;BME280;5455;53.224;6.000;2024-01-10T00:35:00;103474.28;;;-3.60;100.00
10806;BME280;5455;53.224;6.000;2024-01-10T00:37:27;103464.72;;;-3.62;100.00
10806;BME280;5455;53.224;6.000;2024-01-10T00:39:54;103463.03;;;-3.63;100.00
10806;BME280;5455;53.224;6.000;2024-01-10T00:42:21;103463.47;;;-3.60;100.00
10806;BME280;5455;53.224;6.000;2024-01-10T00:44:48;103463.31;;;-3.58;100.00
10806;BME280;5455;53.224;6.000;2024-01-10T00:47:15;103458.50;;;-3.63;100.00
10806;BME280;5455;53.224;6.000;2024-01-10T00:49:41;103454.78;;;-3.62;100.00
10806;BME280;5455;53.224;6.000;2024-01-10T00:52:08;103461.44;;;-3.58;100.00
10806;BME280;5455;53.224;6.000;2024-01-10T00:54:36;103451.69;;;-3.59;100.00
10806;BME280;5455;53.224;6.000;2024-01-10T00:57:03;103449.41;;;-3.55;100.00
10806;BME280;5455;53.224;6.000;2024-01-10T00:59:30;103450.88;;;-3.53;100.00
10806;BME280;5455;53.224;6.000;2024-01-10T01:01:57;103453.16;;;-3.50;100.00
10806;BME280;5455;53.224;6.000;2024-01-10T01:04:24;103455.66;;;-3.48;100.00
10806;BME280;5455;53.224;6.000;2024-01-10T01:06:51;103449.44;;;-3.49;100.00
10806;BME280;5455;53.224;6.000;2024-01-10T01:09:18;103449.44;;;-3.49;100.00
10806;BME280;5455;53.224;6.000;2024-01-10T01:11:45;103452.56;;;-3.45;100.00
10806;BME280;5455;53.224;6.000;2024-01-10T01:14:12;103454.44;;;-3.46;100.00
10806;BME280;5455;53.224;6.000;2024-01-10T01:16:39;103444.06;;;-3.49;100.00
10806;BME280;5455;53.224;6.000;2024-01-10T01:19:06;103447.56;;;-3.48;100.00
10806;BME280;5455;53.224;6.000;2024-01-10T01:21:33;103437.59;;;-3.48;100.00
10806;BME280;5455;53.224;6.000;2024-01-10T01:24:00;103445.50;;;-3.46;100.00
10806;BME280;5455;53.224;6.000;2024-01-10T01:26:27;103447.59;;;-3.42;100.00
10806;BME280;5455;53.224;6.000;2024-01-10T01:28:54;103449.25;;;-3.41;100.00
10806;BME280;5455;53.224;6.000;2024-01-10T01:31:21;103445.31;;;-3.38;100.00
10806;BME280;5455;53.224;6.000;2024-01-10T01:33:48;103446.78;;;-3.36;100.00
10806;BME280;5455;53.224;6.000;2024-01-10T01:36:15;103443.06;;;-3.35;100.00
10806;BME280;5455;53.224;6.000;2024-01-10T01:38:42;103441.59;;;-3.37;100.00
10806;BME280;5455;53.224;6.000;2024-01-10T01:41:09;103438.69;;;-3.36;100.00
10806;BME280;5455;53.224;6.000;2024-01-10T01:43:36;103430.81;;;-3.37;100.00
10806;BME280;5455;53.224;6.000;2024-01-10T01:46:03;103438.91;;;-3.37;100.00
10806;BME280;5455;53.224;6.000;2024-01-10T01:48:31;103438.91;;;-3.37;100.00
10806;BME280;5455;53.224;6.000;2024-01-10T01:51:02;103437.44;;;-3.40;100.00
10806;BME280;5455;53.224;6.000;2024-01-10T01:53:30;103439.91;;;-3.45;100.00
10806;BME280;5455;53.224;6.000;2024-01-10T01:56:00;103441.97;;;-3.47;100.00
10806;BME280;5455;53.224;6.000;2024-01-10T01:58:30;103434.28;;;-3.50;100.00
10806;BME280;5455;53.224;6.000;2024-01-10T02:00:57;103434.91;;;-3.48;100.00
10806;BME280;5455;53.224;6.000;2024-01-10T02:03:25;103440.31;;;-3.48;100.00
10806;BME280;5455;53.224;6.000;2024-01-10T02:05:53;103444.88;;;-3.48;100.00
10806;BME280;5455;53.224;6.000;2024-01-10T02:08:21;103445.69;;;-3.48;100.00
10806;BME280;5455;53.224;6.000;2024-01-10T02:10:50;103435.31;;;-3.51;100.00
10806;BME280;5455;53.224;6.000;2024-01-10T02:13:17;103441.13;;;-3.54;100.00
10806;BME280;5455;53.224;6.000;2024-01-10T02:15:44;103439.47;;;-3.55;100.00
10806;BME280;5455;53.224;6.000;2024-01-10T02:18:11;103433.44;;;-3.57;100.00
10806;BME280;5455;53.224;6.000;2024-01-10T02:20:39;103434.47;;;-3.58;100.00
10806;BME280;5455;53.224;6.000;2024-01-10T02:23:06;103431.97;;;-3.59;100.00
10806;BME280;5455;53.224;6.000;2024-01-10T02:25:34;103433.44;;;-3.57;100.00
10806;BME280;5455;53.224;6.000;2024-01-10T02:28:01;103421.19;;;-3.59;100.00
10806;BME280;5455;53.224;6.000;2024-01-10T02:30:28;103424.91;;;-3.60;100.00
10806;BME280;5455;53.224;6.000;2024-01-10T02:32:55;103427.41;;;-3.59;100.00
10806;BME280;5455;53.224;6.000;2024-01-10T02:35:22;103414.97;;;-3.60;100.00
10806;BME280;5455;53.224;6.000;2024-01-10T02:37:49;103415.59;;;-3.58;100.00
10806;BME280;5455;53.224;6.000;2024-01-10T02:40:18;103419.31;;;-3.59;100.00
10806;BME280;5455;53.224;6.000;2024-01-10T02:42:45;103412.25;;;-3.60;100.00
10806;BME280;5455;53.224;6.000;2024-01-10T02:45:13;103412.25;;;-3.60;100.00
10806;BME280;5455;53.224;6.000;2024-01-10T02:47:40;103416.81;;;-3.60;100.00
10806;BME280;5455;53.224;6.000;2024-01-10T02:50:07;103406.03;;;-3.60;100.00
10806;BME280;5455;53.224;6.000;2024-01-10T02:52:34;103417.66;;;-3.60;100.00
10806;BME280;5455;53.224;6.000;2024-01-10T02:55:01;103409.56;;;-3.60;100.00
10806;BME280;5455;53.224;6.000;2024-01-10T02:57:28;103406.88;;;-3.60;100.00
10806;BME280;5455;53.224;6.000;2024-01-10T02:59:55;103409.78;;;-3.61;100.00
10806;BME280;5455;53.224;6.000;2024-01-10T03:02:22;103407.50;;;-3.64;100.00
10806;BME280;5455;53.224;6.000;2024-01-10T03:04:50;103409.34;;;-3.65;100.00
10806;BME280;5455;53.224;6.000;2024-01-10T03:07:17;103417.44;;;-3.65;100.00
10806;BME280;5455;53.224;6.000;2024-01-10T03:09:44;103406.44;;;-3.63;100.00
10806;BME280;5455;53.224;6.000;2024-01-10T03:12:11;103405.81;;;-3.65;100.00
10806;BME280;5455;53.224;6.000;2024-01-10T03:14:38;103390.00;;;-3.75;100.00
10806;BME280;5455;53.224;6.000;2024-01-10T03:17:05;103395.03;;;-3.65;100.00
10806;BME280;5455;53.224;6.000;2024-01-10T03:19:33;103390.06;;;-3.62;100.00
10806;BME280;5455;53.224;6.000;2024-01-10T03:22:00;103392.56;;;-3.60;100.00
10806;BME280;5455;53.224;6.000;2024-01-10T03:24:27;103384.06;;;-3.64;100.00
10806;BME280;5455;53.224;6.000;2024-01-10T03:26:54;103386.94;;;-3.65;100.00
10806;BME280;5455;53.224;6.000;2024-01-10T03:29:21;103386.53;;;-3.62;100.00
10806;BME280;5455;53.224;6.000;2024-01-10T03:31:48;103383.00;;;-3.63;100.00
10806;BME280;5455;53.224;6.000;2024-01-10T03:34:15;103383.22;;;-3.64;100.00
10806;BME280;5455;53.224;6.000;2024-01-10T03:36:43;103381.16;;;-3.62;100.00
10806;BME280;5455;53.224;6.000;2024-01-10T03:39:10;103383.00;;;-3.63;100.00
10806;BME280;5455;53.224;6.000;2024-01-10T03:41:37;103382.00;;;-3.62;100.00
10806;BME280;5455;53.224;6.000;2024-01-10T03:44:05;103385.53;;;-3.61;100.00
10806;BME280;5455;53.224;6.000;2024-01-10T03:46:32;103393.78;;;-3.63;100.00
10806;BME280;5455;53.224;6.000;2024-01-10T03:49:00;103388.84;;;-3.59;100.00
10806;BME280;5455;53.224;6.000;2024-01-10T03:51:27;103389.25;;;-3.56;100.00
10806;BME280;5455;53.224;6.000;2024-01-10T03:53:54;103387.41;;;-3.55;100.00
10806;BME280;5455;53.224;6.000;2024-01-10T03:56:21;103375.78;;;-3.56;100.00
10806;BME280;5455;53.224;6.000;2024-01-10T03:58:49;103375.97;;;-3.57;100.00
10806;BME280;5455;53.224;6.000;2024-01-10T04:01:16;103369.13;;;-3.60;100.00
10806;BME280;5455;53.224;6.000;2024-01-10T04:03:43;103370.97;;;-3.60;100.00
10806;BME280;5455;53.224;6.000;2024-01-10T04:06:11;103373.50;;;-3.59;100.00
10806;BME280;5455;53.224;6.000;2024-01-10T04:08:38;103369.53;;;-3.63;100.00
10806;BME280;5455;53.224;6.000;2024-01-10T04:11:05;103373.91;;;-3.62;100.00
10806;BME280;5455;53.224;6.000;2024-01-10T04:13:32;103377.22;;;-3.60;100.00
10806;BME280;5455;53.224;6.000;2024-01-10T04:15:59;103373.69;;;-3.60;100.00
10806;BME280;5455;53.224;6.000;2024-01-10T04:18:26;103360.00;;;-3.65;100.00
10806;BME280;5455;53.224;6.000;2024-01-10T04:20:53;103362.50;;;-3.64;100.00
10806;BME280;5455;53.224;6.000;2024-01-10T04:23:20;103360.00;;;-3.65;100.00
10806;BME280;5455;53.224;6.000;2024-01-10T04:25:48;103369.09;;;-3.66;100.00
10806;BME280;5455;53.224;6.000;2024-01-10T04:28:15;103366.63;;;-3.68;100.00
10806;BME280;5455;53.224;6.000;2024-01-10T04:30:41;103369.31;;;-3.68;100.00
10806;BME280;5455;53.224;6.000;2024-01-10T04:33:08;103366.41;;;-3.66;100.00
10806;BME280;5455;53.224;6.000;2024-01-10T04:35:36;103369.09;;;-3.66;100.00
10806;BME280;5455;53.224;6.000;2024-01-10T04:38:03;103376.16;;;-3.65;100.00
10806;BME280;5455;53.224;6.000;2024-01-10T04:40:30;103371.38;;;-3.63;100.00
10806;BME280;5455;53.224;6.000;2024-01-10T04:42:57;103366.22;;;-3.65;100.00
10806;BME280;5455;53.224;6.000;2024-01-10T04:45:24;103368.91;;;-3.65;100.00
10806;BME280;5455;53.224;6.000;2024-01-10T04:47:51;103360.22;;;-3.67;100.00
10806;BME280;5455;53.224;6.000;2024-01-10T04:50:18;103358.94;;;-3.71;100.00
10806;BME280;5455;53.224;6.000;2024-01-10T04:52:45;103356.84;;;-3.75;100.00
10806;BME280;5455;53.224;6.000;2024-01-10T04:55:12;103350.63;;;-3.76;100.00
10806;BME280;5455;53.224;6.000;2024-01-10T04:57:39;103358.72;;;-3.76;100.00
10806;BME280;5455;53.224;6.000;2024-01-10T05:00:06;103356.44;;;-3.72;100.00
10806;BME280;5455;53.224;6.000;2024-01-10T05:02:33;103348.16;;;-3.71;100.00
10806;BME280;5455;53.224;6.000;2024-01-10T05:05:00;103360.78;;;-3.71;100.00
10806;BME280;5455;53.224;6.000;2024-01-10T05:07:28;103363.72;;;-3.73;100.00
10806;BME280;5455;53.224;6.000;2024-01-10T05:09:55;103348.56;;;-3.74;100.00
10806;BME280;5455;53.224;6.000;2024-01-10T05:12:22;103352.50;;;-3.76;100.00
10806;BME280;5455;53.224;6.000;2024-01-10T05:14:49;103341.91;;;-3.78;100.00
10806;BME280;5455;53.224;6.000;2024-01-10T05:17:15;103345.84;;;-3.80;100.00
10806;BME280;5455;53.224;6.000;2024-01-10T05:19:43;103339.00;;;-3.83;100.00
10806;BME280;5455;53.224;6.000;2024-01-10T05:22:10;103348.53;;;-3.80;100.00
10806;BME280;5455;53.224;6.000;2024-01-10T05:24:37;103343.16;;;-3.80;100.00
10806;BME280;5455;53.224;6.000;2024-01-10T05:27:04;103342.31;;;-3.81;100.00
10806;BME280;5455;53.224;6.000;2024-01-10T05:29:31;103347.25;;;-3.84;100.00
10806;BME280;5455;53.224;6.000;2024-01-10T05:31:58;103345.63;;;-3.85;100.00
10806;BME280;5455;53.224;6.000;2024-01-10T05:34:25;103345.41;;;-3.84;100.00
10806;BME280;5455;53.224;6.000;2024-01-10T05:36:52;103342.72;;;-3.84;100.00
10806;BME280;5455;53.224;6.000;2024-01-10T05:39:20;103337.72;;;-3.87;100.00
10806;BME280;5455;53.224;6.000;2024-01-10T05:41:48;103336.09;;;-3.88;100.00
10806;BME280;5455;53.224;6.000;2024-01-10T05:44:15;103344.16;;;-3.88;100.00
10806;BME280;5455;53.224;6.000;2024-01-10T05:46:42;103335.69;;;-3.85;100.00
10806;BME280;5455;53.224;6.000;2024-01-10T05:49:10;103332.16;;;-3.85;100.00
10806;BME280;5455;53.224;6.000;2024-01-10T05:51:37;103336.47;;;-3.84;100.00
10806;BME280;5455;53.224;6.000;2024-01-10T05:54:04;103339.00;;;-3.83;100.00
10806;BME280;5455;53.224;6.000;2024-01-10T05:56:31;103330.69;;;-3.81;100.00
10806;BME280;5455;53.224;6.000;2024-01-10T05:58:58;103336.91;;;-3.81;100.00
10806;BME280;5455;53.224;6.000;2024-01-10T06:01:26;103336.09;;;-3.81;100.00
10806;BME280;5455;53.224;6.000;2024-01-10T06:03:53;103328.22;;;-3.83;100.00
10806;BME280;5455;53.224;6.000;2024-01-10T06:06:20;103333.38;;;-3.81;100.00
10806;BME280;5455;53.224;6.000;2024-01-10T06:08:47;103333.59;;;-3.83;100.00
10806;BME280;5455;53.224;6.000;2024-01-10T06:11:14;103331.53;;;-3.81;100.00
10806;BME280;5455;53.224;6.000;2024-01-10T06:13:41;103329.66;;;-3.80;100.00
10806;BME280;5455;53.224;6.000;2024-01-10T06:16:20;103329.88;;;-3.82;100.00
10806;BME280;5455;53.224;6.000;2024-01-10T06:18:47;103333.59;;;-3.83;100.00
10806;BME280;5455;53.224;6.000;2024-01-10T06:21:14;103339.63;;;-3.81;100.00
10806;BME280;5455;53.224;6.000;2024-01-10T06:23:41;103331.94;;;-3.84;100.00
10806;BME280;5455;53.224;6.000;2024-01-10T06:26:09;103331.31;;;-3.86;100.00
10806;BME280;5455;53.224;6.000;2024-01-10T06:28:36;103334.63;;;-3.84;100.00
10806;BME280;5455;53.224;6.000;2024-01-10T06:31:03;103336.31;;;-3.83;100.00
10806;BME280;5455;53.224;6.000;2024-01-10T06:33:31;103328.84;;;-3.81;100.00
10806;BME280;5455;53.224;6.000;2024-01-10T06:35:58;103327.81;;;-3.80;100.00
10806;BME280;5455;53.224;6.000;2024-01-10T06:38:25;103328.44;;;-3.78;100.00
10806;BME280;5455;53.224;6.000;2024-01-10T06:40:53;103334.88;;;-3.79;100.00
10806;BME280;5455;53.224;6.000;2024-01-10T06:43:20;103335.91;;;-3.80;100.00
10806;BME280;5455;53.224;6.000;2024-01-10T06:45:49;103339.22;;;-3.78;100.00
10806;BME280;5455;53.224;6.000;2024-01-10T06:48:16;103336.09;;;-3.75;100.00
10806;BME280;5455;53.224;6.000;2024-01-10T06:50:45;103337.97;;;-3.75;100.00
10806;BME280;5455;53.224;6.000;2024-01-10T06:53:12;103337.78;;;-3.74;100.00
10806;BME280;5455;53.224;6.000;2024-01-10T06:55:40;103341.50;;;-3.75;100.00
10806;BME280;5455;53.224;6.000;2024-01-10T06:58:07;103330.09;;;-3.77;100.00
10806;BME280;5455;53.224;6.000;2024-01-10T07:00:34;103331.78;;;-3.76;100.00
10806;BME280;5455;53.224;6.000;2024-01-10T07:03:02;103339.47;;;-3.73;100.00
10806;BME280;5455;53.224;6.000;2024-01-10T07:05:29;103335.28;;;-3.75;100.00
10806;BME280;5455;53.224;6.000;2024-01-10T07:07:58;103331.34;;;-3.79;100.00
10806;BME280;5455;53.224;6.000;2024-01-10T07:10:26;103329.47;;;-3.79;100.00
10806;BME280;5455;53.224;6.000;2024-01-10T07:12:55;103333.63;;;-3.76;100.00
10806;BME280;5455;53.224;6.000;2024-01-10T07:15:22;103336.50;;;-3.78;100.00
10806;BME280;5455;53.224;6.000;2024-01-10T07:17:49;103346.28;;;-3.77;100.00
10806;BME280;5455;53.224;6.000;2024-01-10T07:20:16;103348.97;;;-3.77;100.00
10806;BME280;5455;53.224;6.000;2024-01-10T07:22:43;103349.59;;;-3.75;100.00
10806;BME280;5455;53.224;6.000;2024-01-10T07:25:13;103352.94;;;-3.73;100.00
10806;BME280;5455;53.224;6.000;2024-01-10T07:27:43;103351.44;;;-3.75;100.00
10806;BME280;5455;53.224;6.000;2024-01-10T07:30:11;103350.63;;;-3.76;100.00
10806;BME280;5455;53.224;6.000;2024-01-10T07:35:09;103347.94;;;-3.76;100.00
10806;BME280;5455;53.224;6.000;2024-01-10T07:37:41;103355.81;;;-3.74;100.00
10806;BME280;5455;53.224;6.000;2024-01-10T07:40:09;103353.72;;;-3.72;100.00
10806;BME280;5455;53.224;6.000;2024-01-10T07:42:40;103352.09;;;-3.73;100.00
10806;BME280;5455;53.224;6.000;2024-01-10T07:45:08;103359.13;;;-3.72;100.00
10806;BME280;5455;53.224;6.000;2024-01-10T07:47:35;103355.41;;;-3.71;100.00
10806;BME280;5455;53.224;6.000;2024-01-10T07:50:09;103349.00;;;-3.70;100.00
10806;BME280;5455;53.224;6.000;2024-01-10T07:52:37;103352.31;;;-3.68;100.00
10806;BME280;5455;53.224;6.000;2024-01-10T07:55:04;103360.22;;;-3.67;100.00
10806;BME280;5455;53.224;6.000;2024-01-10T07:57:33;103359.78;;;-3.70;100.00
10806;BME280;5455;53.224;6.000;2024-01-10T08:00:06;103354.97;;;-3.75;100.00
10806;BME280;5455;53.224;6.000;2024-01-10T08:02:38;103359.78;;;-3.70;100.00
10806;BME280;5455;53.224;6.000;2024-01-10T08:05:07;103363.09;;;-3.68;100.00
10806;BME280;5455;53.224;6.000;2024-01-10T08:07:37;103355.22;;;-3.70;100.00
10806;BME280;5455;53.224;6.000;2024-01-10T08:10:09;103364.13;;;-3.63;100.00
10806;BME280;5455;53.224;6.000;2024-01-10T08:12:37;103354.41;;;-3.64;100.00
10806;BME280;5455;53.224;6.000;2024-01-10T08:15:11;103358.56;;;-3.61;100.00
10806;BME280;5455;53.224;6.000;2024-01-10T08:17:38;103350.91;;;-3.58;100.00
10806;BME280;5455;53.224;6.000;2024-01-10T08:20:08;103353.19;;;-3.55;100.00
10806;BME280;5455;53.224;6.000;2024-01-10T08:22:38;103357.97;;;-3.50;100.00
10806;BME280;5455;53.224;6.000;2024-01-10T08:25:05;103356.72;;;-3.48;100.00
10806;BME280;5455;53.224;6.000;2024-01-10T08:27:32;103355.69;;;-3.47;100.00
10806;BME280;5455;53.224;6.000;2024-01-10T08:30:00;103363.56;;;-3.45;100.00
10806;BME280;5455;53.224;6.000;2024-01-10T08:32:27;103371.47;;;-3.44;100.00
10806;BME280;5455;53.224;6.000;2024-01-10T08:34:54;103354.47;;;-3.38;100.00
10806;BME280;5455;53.224;6.000;2024-01-10T08:37:23;103360.28;;;-3.34;100.00
10806;BME280;5455;53.224;6.000;2024-01-10T08:39:50;103359.66;;;-3.29;100.00
10806;BME280;5455;53.224;6.000;2024-01-10T08:42:17;103360.91;;;-3.25;100.00
10806;BME280;5455;53.224;6.000;2024-01-10T08:44:44;103354.69;;;-3.26;100.00
10806;BME280;5455;53.224;6.000;2024-01-10T08:47:11;103362.59;;;-3.24;100.00
10806;BME280;5455;53.224;6.000;2024-01-10T08:49:38;103356.97;;;-3.23;100.00
10806;BME280;5455;53.224;6.000;2024-01-10T08:52:05;103357.00;;;-3.16;100.00
10806;BME280;5455;53.224;6.000;2024-01-10T08:54:32;103357.81;;;-3.16;100.00
10806;BME280;5455;53.224;6.000;2024-01-10T08:57:00;103359.88;;;-3.11;100.00
10806;BME280;5455;53.224;6.000;2024-01-10T08:59:27;103358.03;;;-3.11;100.00
10806;BME280;5455;53.224;6.000;2024-01-10T09:01:54;103350.56;;;-3.02;100.00
10806;BME280;5455;53.224;6.000;2024-01-10T09:04:22;103357.63;;;-3.01;100.00
10806;BME280;5455;53.224;6.000;2024-01-10T09:06:49;103359.91;;;-2.98;100.00
10806;BME280;5455;53.224;6.000;2024-01-10T09:09:16;103362.19;;;-2.95;100.00
10806;BME280;5455;53.224;6.000;2024-01-10T09:11:47;103364.47;;;-2.92;100.00
10806;BME280;5455;53.224;6.000;2024-01-10T09:14:18;103356.81;;;-2.89;100.00
10806;BME280;5455;53.224;6.000;2024-01-10T09:16:45;103358.88;;;-2.84;100.00
10806;BME280;5455;53.224;6.000;2024-01-10T09:19:12;103360.53;;;-2.76;100.00
10806;BME280;5455;53.224;6.000;2024-01-10T09:21:42;103366.31;;;-2.73;100.00
10806;BME280;5455;53.224;6.000;2024-01-10T09:24:08;103361.34;;;-2.69;100.00
10806;BME280;5455;53.224;6.000;2024-01-10T09:27:01;103373.41;;;-2.65;100.00
10806;BME280;5455;53.224;6.000;2024-01-10T09:29:28;103365.91;;;-2.63;100.00
10806;BME280;5455;53.224;6.000;2024-01-10T09:31:55;103368.84;;;-2.58;100.00
10806;BME280;5455;53.224;6.000;2024-01-10T09:34:23;103362.78;;;-2.54;100.00
10806;BME280;5455;53.224;6.000;2024-01-10T09:36:50;103356.13;;;-2.51;100.00
10806;BME280;5455;53.224;6.000;2024-01-10T09:39:17;103370.66;;;-2.46;100.00
10806;BME280;5455;53.224;6.000;2024-01-10T09:41:49;103366.28;;;-2.40;100.00
10806;BME280;5455;53.224;6.000;2024-01-10T09:44:20;103366.69;;;-2.37;100.00
10806;BME280;5455;53.224;6.000;2024-01-10T09:46:52;103371.25;;;-2.31;100.00
10806;BME280;5455;53.224;6.000;2024-01-10T09:49:20;103363.56;;;-2.27;100.00
10806;BME280;5455;53.224;6.000;2024-01-10T09:51:49;103371.06;;;-2.22;100.00
10806;BME280;5455;53.224;6.000;2024-01-10T09:54:17;103367.94;;;-2.19;100.00
10806;BME280;5455;53.224;6.000;2024-01-10T09:56:47;103371.25;;;-2.17;100.00
10806;BME280;5455;53.224;6.000;2024-01-10T09:59:14;103375.19;;;-2.13;100.00
10806;BME280;5455;53.224;6.000;2024-01-10T10:01:42;103376.22;;;-2.08;100.00
10806;BME280;5455;53.224;6.000;2024-01-10T10:04:11;103382.22;;;-2.06;100.00
10806;BME280;5455;53.224;6.000;2024-01-10T10:06:39;103372.00;;;-2.04;100.00
10806;BME280;5455;53.224;6.000;2024-01-10T10:09:07;103363.91;;;-2.04;100.00
10806;BME280;5455;53.224;6.000;2024-01-10T10:11:36;103368.88;;;-2.01;100.00
10806;BME280;5455;53.224;6.000;2024-01-10T10:14:17;103362.63;;;-1.95;100.00
10806;BME280;5455;53.224;6.000;2024-01-10T10:16:45;103368.44;;;-1.91;100.00
10806;BME280;5455;53.224;6.000;2024-01-10T10:19:22;103361.16;;;-1.84;100.00
10806;BME280;5455;53.224;6.000;2024-01-10T10:22:07;103359.66;;;-1.80;100.00
10806;BME280;5455;53.224;6.000;2024-01-10T10:24:35;103349.25;;;-1.77;100.00
10806;BME280;5455;53.224;6.000;2024-01-10T10:27:08;103347.53;;;-1.71;100.00
10806;BME280;5455;53.224;6.000;2024-01-10T10:29:36;103351.50;;;-1.67;100.00
10806;BME280;5455;53.224;6.000;2024-01-10T10:32:05;103349.19;;;-1.63;100.00
10806;BME280;5455;53.224;6.000;2024-01-10T10:34:33;103357.03;;;-1.55;100.00
10806;BME280;5455;53.224;6.000;2024-01-10T10:37:00;103348.94;;;-1.55;100.00
10806;BME280;5455;53.224;6.000;2024-01-10T10:39:28;103350.59;;;-1.54;100.00
10806;BME280;5455;53.224;6.000;2024-01-10T10:41:56;103350.34;;;-1.53;100.00
10806;BME280;5455;53.224;6.000;2024-01-10T10:44:24;103345.59;;;-1.51;100.00
10806;BME280;5455;53.224;6.000;2024-01-10T10:46:53;103344.53;;;-1.50;100.00
10806;BME280;5455;53.224;6.000;2024-01-10T10:49:44;103348.50;;;-1.52;100.00
10806;BME280;5455;53.224;6.000;2024-01-10T10:52:15;103343.28;;;-1.47;100.00
10806;BME280;5455;53.224;6.000;2024-01-10T10:54:43;103340.75;;;-1.42;100.00
10806;BME280;5455;53.224;6.000;2024-01-10T10:57:11;103345.91;;;-1.41;100.00
10806;BME280;5455;53.224;6.000;2024-01-10T10:59:39;103352.56;;;-1.37;100.00
10806;BME280;5455;53.224;6.000;2024-01-10T11:02:09;103354.66;;;-1.39;100.00
10806;BME280;5455;53.224;6.000;2024-01-10T11:04:39;103357.53;;;-1.34;100.00
10806;BME280;5455;53.224;6.000;2024-01-10T11:07:07;103351.53;;;-1.36;100.00
10806;BME280;5455;53.224;6.000;2024-01-10T11:09:39;103356.72;;;-1.34;100.00
10806;BME280;5455;53.224;6.000;2024-01-10T11:12:40;103355.63;;;-1.27;100.00
10806;BME280;5455;53.224;6.000;2024-01-10T11:18:22;103365.03;;;-1.29;100.00
10806;BME280;5455;53.224;6.000;2024-01-10T11:21:24;103349.81;;;-1.30;100.00
10806;BME280;5455;53.224;6.000;2024-01-10T11:23:58;103359.78;;;-1.24;100.00
10806;BME280;5455;53.224;6.000;2024-01-10T11:26:26;103344.81;;;-1.27;100.00
10806;BME280;5455;53.224;6.000;2024-01-10T11:28:53;103351.50;;;-1.29;100.00
10806;BME280;5455;53.224;6.000;2024-01-10T11:31:28;103351.03;;;-1.26;100.00
10806;BME280;5455;53.224;6.000;2024-01-10T11:34:00;103345.56;;;-1.20;100.00
10806;BME280;5455;53.224;6.000;2024-01-10T11:36:27;103342.00;;;-1.14;100.00
10806;BME280;5455;53.224;6.000;2024-01-10T11:38:58;103326.59;;;-1.13;100.00
10806;BME280;5455;53.224;6.000;2024-01-10T11:41:30;103327.38;;;-1.06;100.00
10806;BME280;5455;53.224;6.000;2024-01-10T11:46:46;103324.22;;;-1.03;100.00
10806;BME280;5455;53.224;6.000;2024-01-10T11:49:15;103316.31;;;-1.04;100.00
10806;BME280;5455;53.224;6.000;2024-01-10T11:51:50;103317.09;;;-0.97;100.00
10806;BME280;5455;53.224;6.000;2024-01-10T11:57:25;103328.13;;;-0.99;100.00
10806;BME280;5455;53.224;6.000;2024-01-10T11:59:56;103329.16;;;-0.93;100.00
10806;BME280;5455;53.224;6.000;2024-01-10T12:02:26;103327.88;;;-0.91;100.00
10806;BME280;5455;53.224;6.000;2024-01-10T12:04:55;103326.19;;;-0.92;100.00
10806;BME280;5455;53.224;6.000;2024-01-10T12:07:23;103323.66;;;-0.87;99.84
10806;BME280;5455;53.224;6.000;2024-01-10T12:09:52;103329.41;;;-0.77;100.00
10806;BME280;5455;53.224;6.000;2024-01-10T12:12:18;103329.56;;;-0.72;100.00
10806;BME280;5455;53.224;6.000;2024-01-10T12:14:46;103324.59;;;-0.75;100.00
10806;BME280;5455;53.224;6.000;2024-01-10T12:17:13;103322.72;;;-0.74;99.17
10806;BME280;5455;53.224;6.000;2024-01-10T12:19:41;103312.25;;;-0.71;96.74
10806;BME280;5455;53.224;6.000;2024-01-10T12:22:13;103315.03;;;-0.77;97.74
10806;BME280;5455;53.224;6.000;2024-01-10T12:24:47;103310.25;;;-0.75;98.21
10806;BME280;5455;53.224;6.000;2024-01-10T12:27:19;103304.38;;;-0.72;98.42
10806;BME280;5455;53.224;6.000;2024-01-10T12:29:50;103299.09;;;-0.67;99.50
10806;BME280;5455;53.224;6.000;2024-01-10T12:32:19;103286.94;;;-0.58;100.00
10806;BME280;5455;53.224;6.000;2024-01-10T12:34:47;103285.78;;;-0.50;100.00
10806;BME280;5455;53.224;6.000;2024-01-10T12:37:15;103285.41;;;-0.54;99.74
10806;BME280;5455;53.224;6.000;2024-01-10T12:39:41;103285.25;;;-0.59;99.09
10806;BME280;5455;53.224;6.000;2024-01-10T12:42:09;103283.97;;;-0.57;100.00
10806;BME280;5455;53.224;6.000;2024-01-10T12:44:36;103279.97;;;-0.54;100.00
10806;BME280;5455;53.224;6.000;2024-01-10T12:47:03;103285.25;;;-0.59;99.90
10806;BME280;5455;53.224;6.000;2024-01-10T12:49:31;103278.78;;;-0.58;100.00
10806;BME280;5455;53.224;6.000;2024-01-10T12:51:58;103268.09;;;-0.53;100.00
10806;BME280;5455;53.224;6.000;2024-01-10T12:54:25;103269.13;;;-0.54;100.00
10806;BME280;5455;53.224;6.000;2024-01-10T12:56:52;103279.53;;;-0.51;100.00
10806;BME280;5455;53.224;6.000;2024-01-10T12:59:19;103270.50;;;-0.45;100.00
10806;BME280;5455;53.224;6.000;2024-01-10T13:01:46;103279.84;;;-0.41;100.00
10806;BME280;5455;53.224;6.000;2024-01-10T13:04:13;103273.38;;;-0.40;100.00
10806;BME280;5455;53.224;6.000;2024-01-10T13:06:40;103275.00;;;-0.39;100.00